sensor_id;sensor_type;location;lat;lon;timestamp;P1;durP1;ratioP1;P2;durP2;ratioP2
6109;SDS011;3085;49.444;11.054;2022-08-19T00:01:44;13.17;;;7.63;;
6109;SDS011;3085;49.444;11.054;2022-08-19T00:04:13;19.40;;;9.57;;
6109;SDS011;3085;49.444;11.054;2022-08-19T00:06:42;19.50;;;7.77;;
6109;SDS011;3085;49.444;11.054;2022-08-19T00:09:12;14.07;;;8.97;;
6109;SDS011;3085;49.444;11.054;2022-08-19T00:11:43;14.40;;;7.47;;
6109;SDS011;3085;49.444;11.054;2022-08-19T00:14:11;17.60;;;9.47;;
6109;SDS011;3085;49.444;11.054;2022-08-19T00:16:40;13.93;;;7.57;;
6109;SDS011;3085;49.444;11.054;2022-08-19T00:19:09;15.90;;;8.63;;
6109;SDS011;3085;49.444;11.054;2022-08-19T00:21:36;16.47;;;8.77;;
6109;SDS011;3085;49.444;11.054;2022-08-19T00:24:05;18.87;;;8.87;;
6109;SDS011;3085;49.444;11.054;2022-08-19T00:26:32;20.47;;;9.80;;
6109;SDS011;3085;49.444;11.054;2022-08-19T00:29:02;17.40;;;8.83;;
6109;SDS011;3085;49.444;11.054;2022-08-19T00:31:30;13.07;;;7.80;;
6109;SDS011;3085;49.444;11.054;2022-08-19T00:33:57;19.00;;;8.00;;
6109;SDS011;3085;49.444;11.054;2022-08-19T00:36:24;18.87;;;9.27;;
6109;SDS011;3085;49.444;11.054;2022-08-19T00:38:51;14.73;;;8.00;;
6109;SDS011;3085;49.444;11.054;2022-08-19T00:41:19;13.80;;;8.10;;
6109;SDS011;3085;49.444;11.054;2022-08-19T00:43:56;15.20;;;8.70;;
6109;SDS011;3085;49.444;11.054;2022-08-19T00:46:25;17.23;;;7.87;;
6109;SDS011;3085;49.444;11.054;2022-08-19T00:48:53;16.83;;;7.77;;
6109;SDS011;3085;49.444;11.054;2022-08-19T00:51:21;16.87;;;8.10;;
6109;SDS011;3085;49.444;11.054;2022-08-19T00:53:48;15.80;;;8.30;;
6109;SDS011;3085;49.444;11.054;2022-08-19T00:56:15;13.80;;;7.37;;
6109;SDS011;3085;49.444;11.054;2022-08-19T00:58:42;19.67;;;8.50;;
6109;SDS011;3085;49.444;11.054;2022-08-19T01:01:09;18.67;;;9.53;;
6109;SDS011;3085;49.444;11.054;2022-08-19T01:03:37;16.70;;;8.53;;
6109;SDS011;3085;49.444;11.054;2022-08-19T01:06:04;17.77;;;8.13;;
6109;SDS011;3085;49.444;11.054;2022-08-19T01:08:31;14.00;;;9.17;;
6109;SDS011;3085;49.444;11.054;2022-08-19T01:10:59;14.23;;;8.27;;
6109;SDS011;3085;49.444;11.054;2022-08-19T01:13:28;17.23;;;8.03;;
6109;SDS011;3085;49.444;11.054;2022-08-19T01:15:59;19.37;;;9.77;;
6109;SDS011;3085;49.444;11.054;2022-08-19T01:18:28;17.13;;;8.60;;
6109;SDS011;3085;49.444;11.054;2022-08-19T01:20:58;19.30;;;9.07;;
6109;SDS011;3085;49.444;11.054;2022-08-19T01:23:32;16.80;;;9.20;;
6109;SDS011;3085;49.444;11.054;2022-08-19T01:26:09;20.47;;;9.50;;
6109;SDS011;3085;49.444;11.054;2022-08-19T01:28:38;16.93;;;8.77;;
6109;SDS011;3085;49.444;11.054;2022-08-19T01:31:05;20.20;;;9.53;;
6109;SDS011;3085;49.444;11.054;2022-08-19T01:33:33;20.50;;;8.63;;
6109;SDS011;3085;49.444;11.054;2022-08-19T01:36:04;14.90;;;8.43;;
6109;SDS011;3085;49.444;11.054;2022-08-19T01:38:35;22.47;;;10.10;;
6109;SDS011;3085;49.444;11.054;2022-08-19T01:41:05;16.97;;;9.77;;
6109;SDS011;3085;49.444;11.054;2022-08-19T01:43:32;17.20;;;8.53;;
6109;SDS011;3085;49.444;11.054;2022-08-19T01:45:59;24.57;;;9.60;;
6109;SDS011;3085;49.444;11.054;2022-08-19T01:48:32;20.87;;;8.10;;
6109;SDS011;3085;49.444;11.054;2022-08-19T01:51:00;23.63;;;10.23;;
6109;SDS011;3085;49.444;11.054;2022-08-19T01:53:27;18.40;;;9.10;;
6109;SDS011;3085;49.444;11.054;2022-08-19T01:55:56;18.60;;;9.00;;
6109;SDS011;3085;49.444;11.054;2022-08-19T01:58:24;17.47;;;9.10;;
6109;SDS011;3085;49.444;11.054;2022-08-19T02:00:55;19.30;;;9.83;;
6109;SDS011;3085;49.444;11.054;2022-08-19T02:03:23;16.70;;;8.53;;
6109;SDS011;3085;49.444;11.054;2022-08-19T02:05:53;18.00;;;8.00;;
6109;SDS011;3085;49.444;11.054;2022-08-19T02:08:22;22.23;;;9.50;;
6109;SDS011;3085;49.444;11.054;2022-08-19T02:10:48;17.30;;;8.80;;
6109;SDS011;3085;49.444;11.054;2022-08-19T02:13:17;20.60;;;9.13;;
6109;SDS011;3085;49.444;11.054;2022-08-19T02:15:44;22.43;;;9.33;;
6109;SDS011;3085;49.444;11.054;2022-08-19T02:18:11;18.70;;;9.80;;
6109;SDS011;3085;49.444;11.054;2022-08-19T02:20:39;16.77;;;9.53;;
6109;SDS011;3085;49.444;11.054;2022-08-19T02:23:08;19.57;;;10.43;;
6109;SDS011;3085;49.444;11.054;2022-08-19T02:25:36;16.83;;;9.60;;
6109;SDS011;3085;49.444;11.054;2022-08-19T02:28:03;21.97;;;9.97;;
6109;SDS011;3085;49.444;11.054;2022-08-19T02:30:32;18.77;;;9.20;;
6109;SDS011;3085;49.444;11.054;2022-08-19T02:32:59;22.43;;;10.87;;
6109;SDS011;3085;49.444;11.054;2022-08-19T02:35:27;19.40;;;9.90;;
6109;SDS011;3085;49.444;11.054;2022-08-19T02:37:54;22.47;;;10.67;;
6109;SDS011;3085;49.444;11.054;2022-08-19T02:40:38;25.07;;;10.87;;
6109;SDS011;3085;49.444;11.054;2022-08-19T02:43:05;55.53;;;11.40;;
6109;SDS011;3085;49.444;11.054;2022-08-19T02:45:36;27.20;;;10.70;;
6109;SDS011;3085;49.444;11.054;2022-08-19T02:48:04;22.23;;;10.37;;
6109;SDS011;3085;49.444;11.054;2022-08-19T02:50:31;24.60;;;11.47;;
6109;SDS011;3085;49.444;11.054;2022-08-19T02:52:58;24.53;;;11.70;;
6109;SDS011;3085;49.444;11.054;2022-08-19T02:55:25;22.30;;;10.13;;
6109;SDS011;3085;49.444;11.054;2022-08-19T02:57:52;14.20;;;7.90;;
6109;SDS011;3085;49.444;11.054;2022-08-19T03:00:19;19.47;;;9.53;;
6109;SDS011;3085;49.444;11.054;2022-08-19T03:02:47;20.17;;;9.77;;
6109;SDS011;3085;49.444;11.054;2022-08-19T03:05:14;19.97;;;9.50;;
6109;SDS011;3085;49.444;11.054;2022-08-19T03:07:41;19.67;;;9.87;;
6109;SDS011;3085;49.444;11.054;2022-08-19T03:10:08;22.00;;;9.50;;
6109;SDS011;3085;49.444;11.054;2022-08-19T03:12:35;23.33;;;10.50;;
6109;SDS011;3085;49.444;11.054;2022-08-19T03:15:03;22.53;;;10.03;;
6109;SDS011;3085;49.444;11.054;2022-08-19T03:17:31;23.57;;;10.40;;
6109;SDS011;3085;49.444;11.054;2022-08-19T03:20:00;20.53;;;9.77;;
6109;SDS011;3085;49.444;11.054;2022-08-19T03:22:27;21.90;;;10.50;;
6109;SDS011;3085;49.444;11.054;2022-08-19T03:24:55;20.07;;;10.40;;
6109;SDS011;3085;49.444;11.054;2022-08-19T03:27:21;20.40;;;9.60;;
6109;SDS011;3085;49.444;11.054;2022-08-19T03:29:48;21.20;;;10.93;;
6109;SDS011;3085;49.444;11.054;2022-08-19T03:32:15;18.97;;;9.40;;
6109;SDS011;3085;49.444;11.054;2022-08-19T03:34:42;22.00;;;11.00;;
6109;SDS011;3085;49.444;11.054;2022-08-19T03:37:10;20.83;;;10.33;;
6109;SDS011;3085;49.444;11.054;2022-08-19T03:39:38;20.23;;;10.63;;
6109;SDS011;3085;49.444;11.054;2022-08-19T03:42:07;20.57;;;10.37;;
6109;SDS011;3085;49.444;11.054;2022-08-19T03:44:34;22.93;;;10.17;;
6109;SDS011;3085;49.444;11.054;2022-08-19T03:47:02;23.10;;;10.80;;
6109;SDS011;3085;49.444;11.054;2022-08-19T03:49:31;25.80;;;11.50;;
6109;SDS011;3085;49.444;11.054;2022-08-19T03:52:00;26.00;;;11.30;;
6109;SDS011;3085;49.444;11.054;2022-08-19T03:54:28;25.33;;;9.47;;
6109;SDS011;3085;49.444;11.054;2022-08-19T03:56:55;27.63;;;12.20;;
6109;SDS011;3085;49.444;11.054;2022-08-19T03:59:23;26.00;;;11.20;;
6109;SDS011;3085;49.444;11.054;2022-08-19T04:01:52;28.07;;;11.47;;
6109;SDS011;3085;49.444;11.054;2022-08-19T04:04:19;27.20;;;10.90;;
6109;SDS011;3085;49.444;11.054;2022-08-19T04:06:46;29.57;;;12.87;;
6109;SDS011;3085;49.444;11.054;2022-08-19T04:09:13;22.70;;;9.90;;
6109;SDS011;3085;49.444;11.054;2022-08-19T04:11:43;24.10;;;11.73;;
6109;SDS011;3085;49.444;11.054;2022-08-19T04:14:12;23.70;;;10.53;;
6109;SDS011;3085;49.444;11.054;2022-08-19T04:16:41;24.80;;;10.90;;
6109;SDS011;3085;49.444;11.054;2022-08-19T04:19:09;26.53;;;11.10;;
6109;SDS011;3085;49.444;11.054;2022-08-19T04:21:37;25.20;;;9.70;;
6109;SDS011;3085;49.444;11.054;2022-08-19T04:24:04;25.63;;;10.80;;
6109;SDS011;3085;49.444;11.054;2022-08-19T04:26:32;22.30;;;10.90;;
6109;SDS011;3085;49.444;11.054;2022-08-19T04:29:04;24.47;;;10.80;;
6109;SDS011;3085;49.444;11.054;2022-08-19T04:31:32;25.20;;;9.83;;
6109;SDS011;3085;49.444;11.054;2022-08-19T04:34:01;23.70;;;11.17;;
6109;SDS011;3085;49.444;11.054;2022-08-19T04:36:31;20.97;;;10.60;;
6109;SDS011;3085;49.444;11.054;2022-08-19T04:39:01;25.43;;;9.60;;
6109;SDS011;3085;49.444;11.054;2022-08-19T04:41:29;23.77;;;10.67;;
6109;SDS011;3085;49.444;11.054;2022-08-19T04:44:15;18.80;;;9.77;;
6109;SDS011;3085;49.444;11.054;2022-08-19T04:46:45;21.90;;;10.70;;
6109;SDS011;3085;49.444;11.054;2022-08-19T04:49:13;21.90;;;10.80;;
6109;SDS011;3085;49.444;11.054;2022-08-19T04:51:42;25.53;;;10.77;;
6109;SDS011;3085;49.444;11.054;2022-08-19T04:54:10;19.53;;;10.83;;
6109;SDS011;3085;49.444;11.054;2022-08-19T04:56:38;20.33;;;8.83;;
6109;SDS011;3085;49.444;11.054;2022-08-19T04:59:06;24.60;;;10.70;;
6109;SDS011;3085;49.444;11.054;2022-08-19T05:01:34;24.57;;;11.07;;
6109;SDS011;3085;49.444;11.054;2022-08-19T05:04:02;27.23;;;12.23;;
6109;SDS011;3085;49.444;11.054;2022-08-19T05:06:31;24.43;;;11.10;;
6109;SDS011;3085;49.444;11.054;2022-08-19T05:08:58;24.53;;;11.00;;
6109;SDS011;3085;49.444;11.054;2022-08-19T05:11:26;22.77;;;11.43;;
6109;SDS011;3085;49.444;11.054;2022-08-19T05:13:55;19.90;;;10.57;;
6109;SDS011;3085;49.444;11.054;2022-08-19T05:16:23;31.93;;;11.70;;
6109;SDS011;3085;49.444;11.054;2022-08-19T05:18:53;22.50;;;11.37;;
6109;SDS011;3085;49.444;11.054;2022-08-19T05:21:38;19.77;;;9.43;;
6109;SDS011;3085;49.444;11.054;2022-08-19T05:24:23;24.60;;;11.47;;
6109;SDS011;3085;49.444;11.054;2022-08-19T05:26:52;22.47;;;10.40;;
6109;SDS011;3085;49.444;11.054;2022-08-19T05:29:21;30.07;;;12.50;;
6109;SDS011;3085;49.444;11.054;2022-08-19T05:31:51;25.30;;;11.60;;
6109;SDS011;3085;49.444;11.054;2022-08-19T05:34:21;24.53;;;11.50;;
6109;SDS011;3085;49.444;11.054;2022-08-19T05:36:51;25.10;;;11.10;;
6109;SDS011;3085;49.444;11.054;2022-08-19T05:39:21;22.90;;;11.30;;
6109;SDS011;3085;49.444;11.054;2022-08-19T05:41:53;22.20;;;9.70;;
6109;SDS011;3085;49.444;11.054;2022-08-19T05:44:22;21.40;;;9.97;;
6109;SDS011;3085;49.444;11.054;2022-08-19T05:46:50;22.47;;;11.23;;
6109;SDS011;3085;49.444;11.054;2022-08-19T05:49:19;22.80;;;10.53;;
6109;SDS011;3085;49.444;11.054;2022-08-19T05:51:49;23.97;;;11.03;;
6109;SDS011;3085;49.444;11.054;2022-08-19T05:54:17;20.73;;;10.70;;
6109;SDS011;3085;49.444;11.054;2022-08-19T05:56:45;27.43;;;10.80;;
6109;SDS011;3085;49.444;11.054;2022-08-19T05:59:12;23.63;;;10.80;;
6109;SDS011;3085;49.444;11.054;2022-08-19T06:01:42;26.57;;;9.80;;
6109;SDS011;3085;49.444;11.054;2022-08-19T06:04:11;19.67;;;10.30;;
6109;SDS011;3085;49.444;11.054;2022-08-19T06:06:40;20.87;;;10.83;;
6109;SDS011;3085;49.444;11.054;2022-08-19T06:09:07;19.33;;;9.73;;
6109;SDS011;3085;49.444;11.054;2022-08-19T06:11:35;23.27;;;11.03;;
6109;SDS011;3085;49.444;11.054;2022-08-19T06:14:06;26.33;;;11.10;;
6109;SDS011;3085;49.444;11.054;2022-08-19T06:16:34;18.07;;;10.30;;
6109;SDS011;3085;49.444;11.054;2022-08-19T06:19:04;50.43;;;11.90;;
6109;SDS011;3085;49.444;11.054;2022-08-19T06:21:32;19.20;;;8.57;;
6109;SDS011;3085;49.444;11.054;2022-08-19T06:24:03;21.63;;;9.53;;
6109;SDS011;3085;49.444;11.054;2022-08-19T06:26:33;29.70;;;11.40;;
6109;SDS011;3085;49.444;11.054;2022-08-19T06:29:01;18.07;;;9.93;;
6109;SDS011;3085;49.444;11.054;2022-08-19T06:31:28;21.63;;;9.50;;
6109;SDS011;3085;49.444;11.054;2022-08-19T06:33:58;31.00;;;11.97;;
6109;SDS011;3085;49.444;11.054;2022-08-19T06:36:28;22.13;;;9.33;;
6109;SDS011;3085;49.444;11.054;2022-08-19T06:38:59;23.90;;;10.23;;
6109;SDS011;3085;49.444;11.054;2022-08-19T06:41:28;25.87;;;11.07;;
6109;SDS011;3085;49.444;11.054;2022-08-19T06:43:56;23.40;;;11.37;;
6109;SDS011;3085;49.444;11.054;2022-08-19T06:46:23;24.47;;;10.67;;
6109;SDS011;3085;49.444;11.054;2022-08-19T06:48:51;19.07;;;9.13;;
6109;SDS011;3085;49.444;11.054;2022-08-19T06:51:20;17.73;;;8.57;;
6109;SDS011;3085;49.444;11.054;2022-08-19T06:53:49;21.73;;;10.07;;
6109;SDS011;3085;49.444;11.054;2022-08-19T06:56:22;22.10;;;9.97;;
6109;SDS011;3085;49.444;11.054;2022-08-19T06:58:52;20.37;;;8.90;;
6109;SDS011;3085;49.444;11.054;2022-08-19T07:01:19;18.83;;;10.17;;
6109;SDS011;3085;49.444;11.054;2022-08-19T07:03:46;29.93;;;10.60;;
6109;SDS011;3085;49.444;11.054;2022-08-19T07:06:14;20.07;;;10.00;;
6109;SDS011;3085;49.444;11.054;2022-08-19T07:08:45;24.30;;;9.97;;
6109;SDS011;3085;49.444;11.054;2022-08-19T07:11:14;21.23;;;10.83;;
6109;SDS011;3085;49.444;11.054;2022-08-19T07:13:44;22.90;;;8.37;;
6109;SDS011;3085;49.444;11.054;2022-08-19T07:16:15;31.03;;;9.70;;
6109;SDS011;3085;49.444;11.054;2022-08-19T07:18:44;17.17;;;8.50;;
6109;SDS011;3085;49.444;11.054;2022-08-19T07:21:13;15.17;;;8.40;;
6109;SDS011;3085;49.444;11.054;2022-08-19T07:23:41;16.33;;;8.67;;
6109;SDS011;3085;49.444;11.054;2022-08-19T07:26:09;19.83;;;9.27;;
6109;SDS011;3085;49.444;11.054;2022-08-19T07:28:38;13.50;;;6.60;;
6109;SDS011;3085;49.444;11.054;2022-08-19T07:31:05;13.90;;;6.43;;
6109;SDS011;3085;49.444;11.054;2022-08-19T07:33:34;12.03;;;5.97;;
6109;SDS011;3085;49.444;11.054;2022-08-19T07:36:02;15.40;;;7.77;;
6109;SDS011;3085;49.444;11.054;2022-08-19T07:38:30;11.60;;;6.00;;
6109;SDS011;3085;49.444;11.054;2022-08-19T07:40:57;14.00;;;7.50;;
6109;SDS011;3085;49.444;11.054;2022-08-19T07:43:24;17.23;;;7.17;;
6109;SDS011;3085;49.444;11.054;2022-08-19T07:45:52;9.97;;;5.70;;
6109;SDS011;3085;49.444;11.054;2022-08-19T07:48:21;10.60;;;6.63;;
6109;SDS011;3085;49.444;11.054;2022-08-19T07:50:52;12.93;;;6.00;;
6109;SDS011;3085;49.444;11.054;2022-08-19T07:53:19;13.33;;;7.07;;
6109;SDS011;3085;49.444;11.054;2022-08-19T07:55:46;14.60;;;7.50;;
6109;SDS011;3085;49.444;11.054;2022-08-19T07:58:14;11.60;;;7.03;;
6109;SDS011;3085;49.444;11.054;2022-08-19T08:00:44;16.20;;;6.90;;
6109;SDS011;3085;49.444;11.054;2022-08-19T08:03:13;15.20;;;7.60;;
6109;SDS011;3085;49.444;11.054;2022-08-19T08:05:42;13.67;;;7.30;;
6109;SDS011;3085;49.444;11.054;2022-08-19T08:08:28;21.97;;;7.33;;
6109;SDS011;3085;49.444;11.054;2022-08-19T08:11:27;21.67;;;8.47;;
6109;SDS011;3085;49.444;11.054;2022-08-19T08:13:54;18.17;;;8.60;;
6109;SDS011;3085;49.444;11.054;2022-08-19T08:16:23;14.57;;;6.40;;
6109;SDS011;3085;49.444;11.054;2022-08-19T08:18:56;18.73;;;8.53;;
6109;SDS011;3085;49.444;11.054;2022-08-19T08:21:22;15.00;;;7.73;;
6109;SDS011;3085;49.444;11.054;2022-08-19T08:23:51;11.80;;;7.27;;
6109;SDS011;3085;49.444;11.054;2022-08-19T08:26:20;15.53;;;8.87;;
6109;SDS011;3085;49.444;11.054;2022-08-19T08:28:47;16.83;;;8.60;;
6109;SDS011;3085;49.444;11.054;2022-08-19T08:31:14;23.80;;;11.43;;
6109;SDS011;3085;49.444;11.054;2022-08-19T08:33:40;22.23;;;9.43;;
6109;SDS011;3085;49.444;11.054;2022-08-19T08:36:08;22.90;;;10.63;;
6109;SDS011;3085;49.444;11.054;2022-08-19T08:38:36;22.43;;;9.47;;
6109;SDS011;3085;49.444;11.054;2022-08-19T08:41:05;29.10;;;12.33;;
6109;SDS011;3085;49.444;11.054;2022-08-19T08:43:44;23.70;;;11.97;;
6109;SDS011;3085;49.444;11.054;2022-08-19T08:46:14;23.80;;;11.20;;
6109;SDS011;3085;49.444;11.054;2022-08-19T08:48:46;23.00;;;11.53;;
6109;SDS011;3085;49.444;11.054;2022-08-19T08:51:19;20.33;;;10.40;;
6109;SDS011;3085;49.444;11.054;2022-08-19T08:53:49;29.27;;;12.30;;
6109;SDS011;3085;49.444;11.054;2022-08-19T08:56:20;25.57;;;11.97;;
6109;SDS011;3085;49.444;11.054;2022-08-19T08:58:49;20.97;;;10.60;;
6109;SDS011;3085;49.444;11.054;2022-08-19T09:01:20;29.50;;;12.37;;
6109;SDS011;3085;49.444;11.054;2022-08-19T09:03:47;28.10;;;10.87;;
6109;SDS011;3085;49.444;11.054;2022-08-19T09:06:17;22.00;;;12.13;;
6109;SDS011;3085;49.444;11.054;2022-08-19T09:08:56;28.10;;;12.37;;
6109;SDS011;3085;49.444;11.054;2022-08-19T09:11:33;24.17;;;11.80;;
6109;SDS011;3085;49.444;11.054;2022-08-19T09:14:08;25.90;;;11.67;;
6109;SDS011;3085;49.444;11.054;2022-08-19T09:16:41;21.57;;;10.93;;
6109;SDS011;3085;49.444;11.054;2022-08-19T09:19:08;28.23;;;12.00;;
6109;SDS011;3085;49.444;11.054;2022-08-19T09:21:36;30.17;;;11.77;;
6109;SDS011;3085;49.444;11.054;2022-08-19T09:24:03;24.30;;;9.80;;
6109;SDS011;3085;49.444;11.054;2022-08-19T09:26:31;20.33;;;10.00;;
6109;SDS011;3085;49.444;11.054;2022-08-19T09:29:00;19.47;;;8.67;;
6109;SDS011;3085;49.444;11.054;2022-08-19T09:31:30;20.43;;;8.33;;
6109;SDS011;3085;49.444;11.054;2022-08-19T09:33:57;21.90;;;10.13;;
6109;SDS011;3085;49.444;11.054;2022-08-19T09:36:25;22.30;;;11.00;;
6109;SDS011;3085;49.444;11.054;2022-08-19T09:38:57;27.17;;;10.97;;
6109;SDS011;3085;49.444;11.054;2022-08-19T09:41:25;25.67;;;12.83;;
6109;SDS011;3085;49.444;11.054;2022-08-19T09:43:54;19.47;;;9.03;;
6109;SDS011;3085;49.444;11.054;2022-08-19T09:46:22;24.20;;;11.70;;
6109;SDS011;3085;49.444;11.054;2022-08-19T09:48:50;21.07;;;10.30;;
6109;SDS011;3085;49.444;11.054;2022-08-19T09:51:18;26.60;;;11.47;;
6109;SDS011;3085;49.444;11.054;2022-08-19T09:53:47;21.60;;;11.93;;
6109;SDS011;3085;49.444;11.054;2022-08-19T09:56:16;21.43;;;9.87;;
6109;SDS011;3085;49.444;11.054;2022-08-19T09:58:44;24.03;;;10.93;;
6109;SDS011;3085;49.444;11.054;2022-08-19T10:01:17;21.53;;;11.20;;
6109;SDS011;3085;49.444;11.054;2022-08-19T10:03:47;17.90;;;9.60;;
6109;SDS011;3085;49.444;11.054;2022-08-19T10:06:15;22.23;;;10.17;;
6109;SDS011;3085;49.444;11.054;2022-08-19T10:08:43;23.23;;;10.97;;
6109;SDS011;3085;49.444;11.054;2022-08-19T10:11:10;26.43;;;10.60;;
6109;SDS011;3085;49.444;11.054;2022-08-19T10:13:39;22.57;;;11.80;;
6109;SDS011;3085;49.444;11.054;2022-08-19T10:16:07;22.67;;;11.53;;
6109;SDS011;3085;49.444;11.054;2022-08-19T10:18:38;27.73;;;11.93;;
6109;SDS011;3085;49.444;11.054;2022-08-19T10:21:09;18.40;;;9.30;;
6109;SDS011;3085;49.444;11.054;2022-08-19T10:23:39;23.27;;;11.03;;
6109;SDS011;3085;49.444;11.054;2022-08-19T10:26:08;22.73;;;10.20;;
6109;SDS011;3085;49.444;11.054;2022-08-19T10:28:36;23.67;;;9.90;;
6109;SDS011;3085;49.444;11.054;2022-08-19T10:31:04;18.40;;;9.83;;
6109;SDS011;3085;49.444;11.054;2022-08-19T10:33:31;20.90;;;9.70;;
6109;SDS011;3085;49.444;11.054;2022-08-19T10:36:01;28.13;;;10.80;;
6109;SDS011;3085;49.444;11.054;2022-08-19T10:38:28;16.97;;;9.37;;
6109;SDS011;3085;49.444;11.054;2022-08-19T10:40:56;18.77;;;9.97;;
6109;SDS011;3085;49.444;11.054;2022-08-19T10:43:23;24.43;;;9.03;;
6109;SDS011;3085;49.444;11.054;2022-08-19T10:45:54;20.03;;;9.60;;
6109;SDS011;3085;49.444;11.054;2022-08-19T10:48:24;20.70;;;9.57;;
6109;SDS011;3085;49.444;11.054;2022-08-19T10:50:51;17.63;;;8.53;;
6109;SDS011;3085;49.444;11.054;2022-08-19T10:53:37;17.03;;;8.67;;
6109;SDS011;3085;49.444;11.054;2022-08-19T10:56:03;19.73;;;9.77;;
6109;SDS011;3085;49.444;11.054;2022-08-19T10:58:48;20.67;;;9.97;;
6109;SDS011;3085;49.444;11.054;2022-08-19T11:01:15;17.20;;;9.00;;
6109;SDS011;3085;49.444;11.054;2022-08-19T11:03:42;19.93;;;9.47;;
6109;SDS011;3085;49.444;11.054;2022-08-19T11:06:10;19.70;;;9.97;;
6109;SDS011;3085;49.444;11.054;2022-08-19T11:08:38;26.10;;;9.80;;
6109;SDS011;3085;49.444;11.054;2022-08-19T11:11:06;18.60;;;8.43;;
6109;SDS011;3085;49.444;11.054;2022-08-19T11:13:37;16.87;;;8.60;;
6109;SDS011;3085;49.444;11.054;2022-08-19T11:16:07;20.97;;;7.60;;
6109;SDS011;3085;49.444;11.054;2022-08-19T11:18:37;14.07;;;8.10;;
6109;SDS011;3085;49.444;11.054;2022-08-19T11:21:06;25.53;;;9.90;;
6109;SDS011;3085;49.444;11.054;2022-08-19T11:23:35;19.43;;;8.37;;
6109;SDS011;3085;49.444;11.054;2022-08-19T11:26:03;16.67;;;9.30;;
6109;SDS011;3085;49.444;11.054;2022-08-19T11:28:31;17.80;;;9.10;;
6109;SDS011;3085;49.444;11.054;2022-08-19T11:30:58;16.13;;;8.90;;
6109;SDS011;3085;49.444;11.054;2022-08-19T11:33:25;23.60;;;10.77;;
6109;SDS011;3085;49.444;11.054;2022-08-19T11:35:52;17.00;;;8.53;;
6109;SDS011;3085;49.444;11.054;2022-08-19T11:38:20;15.30;;;9.27;;
6109;SDS011;3085;49.444;11.054;2022-08-19T11:40:53;19.00;;;7.90;;
6109;SDS011;3085;49.444;11.054;2022-08-19T11:43:25;15.53;;;9.60;;
6109;SDS011;3085;49.444;11.054;2022-08-19T11:45:53;17.80;;;8.23;;
6109;SDS011;3085;49.444;11.054;2022-08-19T11:48:20;15.67;;;8.80;;
6109;SDS011;3085;49.444;11.054;2022-08-19T11:50:48;17.23;;;8.77;;
6109;SDS011;3085;49.444;11.054;2022-08-19T11:53:15;16.67;;;8.30;;
6109;SDS011;3085;49.444;11.054;2022-08-19T11:55:43;14.70;;;9.13;;
6109;SDS011;3085;49.444;11.054;2022-08-19T11:58:10;19.90;;;10.73;;
6109;SDS011;3085;49.444;11.054;2022-08-19T12:00:39;19.00;;;8.30;;
6109;SDS011;3085;49.444;11.054;2022-08-19T12:03:07;17.57;;;10.13;;
6109;SDS011;3085;49.444;11.054;2022-08-19T12:05:35;19.57;;;9.90;;
6109;SDS011;3085;49.444;11.054;2022-08-19T12:08:02;18.50;;;8.53;;
6109;SDS011;3085;49.444;11.054;2022-08-19T12:10:29;19.03;;;10.13;;
6109;SDS011;3085;49.444;11.054;2022-08-19T12:12:56;20.13;;;9.63;;
6109;SDS011;3085;49.444;11.054;2022-08-19T12:15:23;18.13;;;10.20;;
6109;SDS011;3085;49.444;11.054;2022-08-19T12:17:51;19.13;;;9.63;;
6109;SDS011;3085;49.444;11.054;2022-08-19T12:20:21;19.70;;;8.63;;
6109;SDS011;3085;49.444;11.054;2022-08-19T12:22:49;18.03;;;9.80;;
6109;SDS011;3085;49.444;11.054;2022-08-19T12:25:16;18.03;;;10.30;;
6109;SDS011;3085;49.444;11.054;2022-08-19T12:27:43;17.60;;;8.73;;
6109;SDS011;3085;49.444;11.054;2022-08-19T12:30:11;19.50;;;9.70;;
6109;SDS011;3085;49.444;11.054;2022-08-19T12:32:39;18.40;;;9.03;;
6109;SDS011;3085;49.444;11.054;2022-08-19T12:35:08;16.60;;;9.30;;
6109;SDS011;3085;49.444;11.054;2022-08-19T12:37:36;15.33;;;8.07;;
6109;SDS011;3085;49.444;11.054;2022-08-19T12:40:03;17.00;;;9.33;;
6109;SDS011;3085;49.444;11.054;2022-08-19T12:42:31;18.93;;;10.80;;
6109;SDS011;3085;49.444;11.054;2022-08-19T12:44:58;19.27;;;9.00;;
6109;SDS011;3085;49.444;11.054;2022-08-19T12:47:25;19.70;;;9.27;;
6109;SDS011;3085;49.444;11.054;2022-08-19T12:49:52;20.80;;;10.33;;
6109;SDS011;3085;49.444;11.054;2022-08-19T12:52:23;20.20;;;9.30;;
6109;SDS011;3085;49.444;11.054;2022-08-19T12:54:52;18.60;;;9.67;;
6109;SDS011;3085;49.444;11.054;2022-08-19T12:57:21;19.13;;;9.13;;
6109;SDS011;3085;49.444;11.054;2022-08-19T12:59:51;22.90;;;10.83;;
6109;SDS011;3085;49.444;11.054;2022-08-19T13:02:19;24.40;;;11.27;;
6109;SDS011;3085;49.444;11.054;2022-08-19T13:04:47;22.67;;;9.30;;
6109;SDS011;3085;49.444;11.054;2022-08-19T13:07:14;21.07;;;10.67;;
6109;SDS011;3085;49.444;11.054;2022-08-19T13:09:42;21.13;;;9.60;;
6109;SDS011;3085;49.444;11.054;2022-08-19T13:12:09;19.97;;;9.30;;
6109;SDS011;3085;49.444;11.054;2022-08-19T13:14:38;28.07;;;11.83;;
6109;SDS011;3085;49.444;11.054;2022-08-19T13:17:05;20.57;;;9.83;;
6109;SDS011;3085;49.444;11.054;2022-08-19T13:19:32;24.30;;;12.00;;
6109;SDS011;3085;49.444;11.054;2022-08-19T13:21:59;20.87;;;10.40;;
6109;SDS011;3085;49.444;11.054;2022-08-19T13:24:25;19.67;;;10.47;;
6109;SDS011;3085;49.444;11.054;2022-08-19T13:26:54;25.10;;;10.67;;
6109;SDS011;3085;49.444;11.054;2022-08-19T13:29:20;23.47;;;10.63;;
6109;SDS011;3085;49.444;11.054;2022-08-19T13:32:05;26.33;;;10.23;;
6109;SDS011;3085;49.444;11.054;2022-08-19T13:34:49;24.40;;;10.50;;
6109;SDS011;3085;49.444;11.054;2022-08-19T13:37:16;24.50;;;10.63;;
6109;SDS011;3085;49.444;11.054;2022-08-19T13:40:04;25.57;;;11.40;;
6109;SDS011;3085;49.444;11.054;2022-08-19T13:42:33;25.47;;;10.27;;
6109;SDS011;3085;49.444;11.054;2022-08-19T13:45:01;28.67;;;11.93;;
6109;SDS011;3085;49.444;11.054;2022-08-19T13:47:29;34.43;;;12.53;;
6109;SDS011;3085;49.444;11.054;2022-08-19T13:49:56;23.07;;;12.33;;
6109;SDS011;3085;49.444;11.054;2022-08-19T13:52:23;34.10;;;13.40;;
6109;SDS011;3085;49.444;11.054;2022-08-19T13:54:50;24.07;;;11.63;;
6109;SDS011;3085;49.444;11.054;2022-08-19T13:57:17;26.03;;;11.63;;
6109;SDS011;3085;49.444;11.054;2022-08-19T13:59:45;29.40;;;14.70;;
6109;SDS011;3085;49.444;11.054;2022-08-19T14:02:11;27.30;;;12.90;;
6109;SDS011;3085;49.444;11.054;2022-08-19T14:04:38;32.13;;;13.00;;
6109;SDS011;3085;49.444;11.054;2022-08-19T14:07:05;25.83;;;11.37;;
6109;SDS011;3085;49.444;11.054;2022-08-19T14:09:32;23.10;;;12.10;;
6109;SDS011;3085;49.444;11.054;2022-08-19T14:11:59;33.17;;;11.97;;
6109;SDS011;3085;49.444;11.054;2022-08-19T14:14:25;28.27;;;15.00;;
6109;SDS011;3085;49.444;11.054;2022-08-19T14:16:53;27.00;;;12.23;;
6109;SDS011;3085;49.444;11.054;2022-08-19T14:19:21;26.20;;;13.60;;
6109;SDS011;3085;49.444;11.054;2022-08-19T14:21:47;24.33;;;12.40;;
6109;SDS011;3085;49.444;11.054;2022-08-19T14:24:14;27.17;;;14.73;;
6109;SDS011;3085;49.444;11.054;2022-08-19T14:26:41;27.67;;;12.00;;
6109;SDS011;3085;49.444;11.054;2022-08-19T14:29:08;22.07;;;10.70;;
6109;SDS011;3085;49.444;11.054;2022-08-19T14:31:35;13.53;;;7.40;;
6109;SDS011;3085;49.444;11.054;2022-08-19T14:34:03;14.87;;;7.87;;
6109;SDS011;3085;49.444;11.054;2022-08-19T14:36:29;12.10;;;7.47;;
6109;SDS011;3085;49.444;11.054;2022-08-19T14:38:59;13.90;;;6.70;;
6109;SDS011;3085;49.444;11.054;2022-08-19T14:41:26;17.00;;;8.13;;
6109;SDS011;3085;49.444;11.054;2022-08-19T14:43:53;10.97;;;6.50;;
6109;SDS011;3085;49.444;11.054;2022-08-19T14:46:23;10.87;;;5.93;;
6109;SDS011;3085;49.444;11.054;2022-08-19T14:48:51;14.97;;;6.63;;
6109;SDS011;3085;49.444;11.054;2022-08-19T14:51:20;11.13;;;6.63;;